Time;durP1;ratioP1;P1;durP2;ratioP2;P2;SDS_P1;SDS_P2;PMS_P1;PMS_P2;Temp;Humidity;BMP_temperature;BMP_pressure;BME280_temperature;BME280_humidity;BME280_pressure;Samples;Min_cycle;Max_cycle;Signal;HPM_P1;HPM_P2
2023/07/06 00:02:10;;;;;;;10.95;8.75;;;;;;;14.47;100.00;101422.41;5227842;28;20033;-68
2023/07/06 00:04:42;;;;;;;11.52;8.02;;;;;;;14.29;100.00;101422.13;5228345;28;20428;-68
2023/07/06 00:07:20;;;;;;;12.50;7.93;;;;;;;14.25;100.00;101417.16;5223830;28;20131;-67
2023/07/06 00:09:52;;;;;;;11.50;8.20;;;;;;;14.19;100.00;101429.25;5231493;28;20044;-67
2023/07/06 00:12:23;;;;;;;13.15;9.13;;;;;;;14.29;100.00;101426.66;5237523;28;20030;-67
2023/07/06 00:14:55;;;;;;;11.75;8.13;;;;;;;14.34;100.00;101423.59;5226329;28;20030;-67
2023/07/06 00:17:26;;;;;;;11.50;8.00;;;;;;;14.37;100.00;101429.56;5232056;28;20522;-67
2023/07/06 00:19:57;;;;;;;13.45;8.07;;;;;;;14.26;100.00;101425.06;5229481;28;20480;-67
2023/07/06 00:22:29;;;;;;;12.00;7.63;;;;;;;14.18;100.00;101424.84;5228122;28;20038;-67
2023/07/06 00:25:00;;;;;;;12.15;7.72;;;;;;;14.24;100.00;101424.34;5226307;28;20035;-67
2023/07/06 00:27:33;;;;;;;9.30;7.30;;;;;;;14.15;100.00;101419.72;5226952;28;20487;-68
2023/07/06 00:30:15;;;;;;;11.40;7.43;;;;;;;14.22;100.00;101426.31;5226747;28;20029;-67
2023/07/06 00:32:51;;;;;;;13.68;7.22;;;;;;;14.15;100.00;101419.72;5222313;28;20510;-67
2023/07/06 00:35:24;;;;;;;11.05;7.35;;;;;;;14.22;100.00;101422.78;5218808;28;20127;-67
2023/07/06 00:37:58;;;;;;;10.65;7.47;;;;;;;14.09;100.00;101420.25;5215720;28;20037;-67
2023/07/06 00:40:31;;;;;;;9.15;6.95;;;;;;;14.01;100.00;101433.44;5213360;28;20116;-67
2023/07/06 00:43:02;;;;;;;11.30;7.10;;;;;;;14.02;100.00;101421.75;5218908;28;20061;-68
2023/07/06 00:45:34;;;;;;;10.82;6.65;;;;;;;13.87;100.00;101429.22;5215834;28;20034;-67
2023/07/06 00:48:20;;;;;;;10.77;6.55;;;;;;;13.98;100.00;101420.25;5216602;28;20029;-68
2023/07/06 00:50:55;;;;;;;10.98;6.28;;;;;;;14.00;100.00;101431.72;5216500;28;20033;-67
2023/07/06 00:53:32;;;;;;;10.88;7.00;;;;;;;13.99;100.00;101430.88;5234496;28;20044;-68
2023/07/06 00:56:05;;;;;;;12.40;7.07;;;;;;;13.93;100.00;101424.19;5216077;28;20049;-67
2023/07/06 00:58:42;;;;;;;11.55;6.97;;;;;;;14.04;100.00;101426.00;5218901;28;20030;-68
2023/07/06 01:01:21;;;;;;;13.95;7.03;;;;;;;13.91;100.00;101426.13;5220052;28;20045;-68
2023/07/06 01:03:55;;;;;;;10.43;6.05;;;;;;;13.80;100.00;101423.47;5229842;28;20027;-68
2023/07/06 01:06:49;;;;;;;9.20;5.55;;;;;;;13.92;100.00;101422.50;5228339;28;20030;-68
2023/07/06 01:09:22;;;;;;;11.48;6.22;;;;;;;13.92;100.00;101422.50;5235013;28;20031;-68
2023/07/06 01:11:55;;;;;;;13.48;6.28;;;;;;;13.63;100.00;101430.19;5225030;28;20399;-68
2023/07/06 01:14:27;;;;;;;8.38;5.18;;;;;;;13.72;100.00;101428.59;5238699;28;20051;-67
2023/07/06 01:17:25;;;;;;;8.70;6.00;;;;;;;13.71;100.00;101421.53;5228836;28;20499;-67
2023/07/06 01:20:21;;;;;;;12.27;6.38;;;;;;;13.59;100.00;101417.16;5232573;28;20123;-67
2023/07/06 01:23:01;;;;;;;8.98;5.80;;;;;;;13.59;100.00;101422.53;5233204;28;20021;-67
2023/07/06 01:26:00;;;;;;;11.45;6.35;;;;;;;13.64;100.00;101431.06;5228899;28;20079;-68
2023/07/06 01:28:50;;;;;;;10.38;5.47;;;;;;;13.47;100.00;101425.22;5234328;28;20038;-68
2023/07/06 01:31:36;;;;;;;10.68;5.07;;;;;;;13.49;100.00;101423.25;5237982;28;20500;-68
2023/07/06 01:34:35;;;;;;;10.65;4.88;;;;;;;13.49;100.00;101422.41;5222633;28;20046;-69
2023/07/06 01:37:16;;;;;;;11.13;5.68;;;;;;;13.53;100.00;101432.75;5232134;28;20380;-68
2023/07/06 01:39:48;;;;;;;11.80;5.00;;;;;;;13.44;100.00;101428.16;5227148;28;20033;-68
2023/07/06 01:42:27;;;;;;;11.48;5.53;;;;;;;13.47;100.00;101429.72;5223097;28;20148;-68
2023/07/06 01:45:07;;;;;;;11.43;5.55;;;;;;;13.42;100.00;101423.88;5229054;28;20407;-68
2023/07/06 01:47:42;;;;;;;8.38;5.15;;;;;;;13.37;100.00;101421.56;5231933;28;20021;-68
2023/07/06 01:50:16;;;;;;;9.80;5.35;;;;;;;13.39;100.00;101421.44;5227309;28;20974;-68
2023/07/06 01:53:21;;;;;;;10.20;5.57;;;;;;;13.50;100.00;101424.09;5229393;28;20033;-68
2023/07/06 01:56:01;;;;;;;9.63;5.32;;;;;;;13.45;100.00;101420.94;5214824;28;20543;-68
2023/07/06 01:58:44;;;;;;;8.45;5.30;;;;;;;13.33;100.00;101429.00;5218483;28;21595;-67
2023/07/06 02:01:21;;;;;;;8.15;4.90;;;;;;;13.23;100.00;101427.09;5226152;28;20515;-68
2023/07/06 02:03:54;;;;;;;10.77;5.20;;;;;;;13.22;100.00;101431.63;5221651;28;21368;-67
2023/07/06 02:06:25;;;;;;;7.13;4.57;;;;;;;13.18;100.00;101424.81;5228179;28;20029;-67
2023/07/06 02:08:57;;;;;;;9.07;4.82;;;;;;;13.30;100.00;101425.69;5217651;28;20018;-67
2023/07/06 02:11:28;;;;;;;10.77;5.50;;;;;;;13.06;100.00;101431.97;5223415;28;20025;-67
2023/07/06 02:13:59;;;;;;;8.25;5.05;;;;;;;13.19;100.00;101433.69;5230457;28;20028;-67
2023/07/06 02:16:31;;;;;;;9.63;5.25;;;;;;;13.13;100.00;101430.53;5227494;28;20026;-68
2023/07/06 02:19:03;;;;;;;9.15;5.22;;;;;;;13.09;100.00;101422.84;5227095;28;20021;-67
2023/07/06 02:21:36;;;;;;;9.18;5.32;;;;;;;13.28;100.00;101422.25;5227312;28;20018;-67
2023/07/06 02:24:09;;;;;;;8.25;5.25;;;;;;;13.04;100.00;101425.00;5225183;28;20052;-68
2023/07/06 02:26:40;;;;;;;8.23;5.07;;;;;;;13.22;100.00;101428.09;5220124;28;20040;-67
2023/07/06 02:29:14;;;;;;;9.13;5.10;;;;;;;13.27;100.00;101420.53;5226491;28;20140;-67
2023/07/06 02:31:47;;;;;;;12.00;5.50;;;;;;;13.25;100.00;101417.13;5222049;28;20049;-67
2023/07/06 02:34:24;;;;;;;7.00;5.10;;;;;;;13.10;100.00;101417.38;5223661;28;20022;-68
2023/07/06 02:36:55;;;;;;;8.52;5.15;;;;;;;13.10;100.00;101419.19;5222053;28;20029;-67
2023/07/06 02:39:27;;;;;;;12.90;5.57;;;;;;;13.05;100.00;101416.84;5213318;28;20124;-67
2023/07/06 02:41:58;;;;;;;10.00;4.93;;;;;;;13.07;100.00;101419.44;5214037;28;20034;-67
2023/07/06 02:44:30;;;;;;;12.35;5.85;;;;;;;13.25;100.00;101417.13;5216078;28;20120;-67
2023/07/06 02:47:01;;;;;;;9.82;5.50;;;;;;;13.22;100.00;101426.25;5212202;28;20025;-67
2023/07/06 02:49:32;;;;;;;13.13;5.43;;;;;;;13.12;100.00;101422.59;5214104;28;20072;-68
2023/07/06 02:52:04;;;;;;;10.05;5.13;;;;;;;13.25;100.00;101419.78;5210088;28;20037;-68
2023/07/06 02:54:36;;;;;;;13.23;5.43;;;;;;;13.04;100.00;101423.22;5213318;28;22068;-67
2023/07/06 02:57:07;;;;;;;8.18;5.13;;;;;;;13.24;100.00;101427.00;5213924;28;20129;-68
2023/07/06 02:59:39;;;;;;;11.45;4.90;;;;;;;13.04;100.00;101428.56;5214729;28;20076;-67
2023/07/06 03:02:10;;;;;;;8.30;4.90;;;;;;;13.06;100.00;101418.56;5215061;28;20036;-67
2023/07/06 03:04:41;;;;;;;10.50;5.57;;;;;;;13.14;100.00;101426.88;5212187;28;20135;-68
2023/07/06 03:07:13;;;;;;;9.75;4.78;;;;;;;13.03;100.00;101421.47;5219711;28;20053;-68
2023/07/06 03:09:45;;;;;;;9.45;4.85;;;;;;;13.03;100.00;101428.69;5215567;28;20030;-67
2023/07/06 03:12:16;;;;;;;9.27;4.63;;;;;;;12.95;100.00;101424.75;5222258;28;20036;-67
2023/07/06 03:14:48;;;;;;;10.27;5.03;;;;;;;12.99;100.00;101432.56;5222181;28;20033;-68
2023/07/06 03:17:19;;;;;;;9.25;4.60;;;;;;;12.94;100.00;101430.22;5212357;28;20033;-68
2023/07/06 03:19:51;;;;;;;9.85;5.13;;;;;;;13.06;100.00;101431.09;5215824;28;20514;-67
2023/07/06 03:22:23;;;;;;;10.90;4.50;;;;;;;12.92;100.00;101435.72;5214120;28;20498;-68
2023/07/06 03:24:54;;;;;;;11.85;5.15;;;;;;;13.01;100.00;101442.19;5214392;28;20053;-67
2023/07/06 03:27:26;;;;;;;8.65;4.78;;;;;;;12.98;100.00;101434.38;5216653;28;20481;-68
2023/07/06 03:29:58;;;;;;;10.63;5.13;;;;;;;12.98;100.00;101436.19;5218004;28;20024;-67
2023/07/06 03:32:29;;;;;;;10.73;5.78;;;;;;;13.14;100.00;101450.97;5218616;28;20108;-68
2023/07/06 03:35:01;;;;;;;13.43;5.50;;;;;;;13.05;100.00;101448.16;5226293;28;20059;-68
2023/07/06 03:37:33;;;;;;;11.15;5.05;;;;;;;13.14;100.00;101453.66;5221490;28;20037;-67
2023/07/06 03:40:10;;;;;;;10.98;5.25;;;;;;;13.03;100.00;101450.09;5215734;28;20556;-68
2023/07/06 03:42:45;;;;;;;8.95;5.00;;;;;;;13.08;100.00;101451.47;5223642;28;20076;-67
2023/07/06 03:45:17;;;;;;;12.57;5.53;;;;;;;13.08;100.00;101454.13;5224833;28;20116;-68
2023/07/06 03:47:50;;;;;;;10.38;5.65;;;;;;;13.19;100.00;101455.97;5223948;28;20029;-68
2023/07/06 03:50:21;;;;;;;13.80;5.78;;;;;;;13.14;100.00;101460.84;5220857;28;20543;-68
2023/07/06 03:52:53;;;;;;;10.23;5.10;;;;;;;13.06;100.00;101464.13;5227677;28;20029;-67
2023/07/06 03:55:24;;;;;;;11.07;5.03;;;;;;;13.04;100.00;101459.84;5217792;28;20573;-67
2023/07/06 03:58:00;;;;;;;10.98;5.28;;;;;;;13.07;100.00;101468.50;5220005;28;20024;-67
2023/07/06 04:00:34;;;;;;;9.95;5.18;;;;;;;13.02;100.00;101472.50;5217931;28;20530;-68
2023/07/06 04:03:06;;;;;;;13.55;5.32;;;;;;;13.00;100.00;101469.09;5220006;28;20029;-68
2023/07/06 04:05:43;;;;;;;11.15;4.88;;;;;;;12.99;100.00;101470.06;5230783;28;20740;-68
2023/07/06 04:08:18;;;;;;;10.43;4.90;;;;;;;12.99;100.00;101470.91;5230395;28;20046;-68
2023/07/06 04:10:50;;;;;;;10.88;5.22;;;;;;;12.99;100.00;101478.94;5230062;28;20029;-67
2023/07/06 04:13:22;;;;;;;12.82;5.30;;;;;;;13.00;100.00;101472.63;5223308;28;20136;-67
2023/07/06 04:15:54;;;;;;;14.43;5.60;;;;;;;13.11;100.00;101480.69;5233645;28;20064;-68
2023/07/06 04:18:25;;;;;;;10.23;5.60;;;;;;;13.11;100.00;101469.13;5225050;28;20018;-67
2023/07/06 04:20:58;;;;;;;12.68;6.13;;;;;;;13.18;100.00;101480.22;5228900;28;20022;-68
2023/07/06 04:23:29;;;;;;;17.42;5.90;;;;;;;13.16;100.00;101476.81;5224611;28;20079;-67
2023/07/06 04:26:01;;;;;;;12.05;6.38;;;;;;;13.23;100.00;101483.38;5227257;28;20579;-67
2023/07/06 04:28:32;;;;;;;12.20;5.90;;;;;;;13.13;100.00;101484.13;5227206;28;20403;-67
2023/07/06 04:31:04;;;;;;;11.45;5.18;;;;;;;13.19;100.00;101482.75;5234022;28;20029;-68
2023/07/06 04:33:36;;;;;;;10.98;5.65;;;;;;;13.14;100.00;101484.97;5229087;28;20026;-68
2023/07/06 04:36:09;;;;;;;10.30;5.00;;;;;;;13.11;100.00;101488.72;5228369;28;20055;-68
2023/07/06 04:38:41;;;;;;;15.40;5.35;;;;;;;13.11;100.00;101486.03;5225764;28;20033;-67
2023/07/06 04:41:13;;;;;;;11.68;5.35;;;;;;;13.16;100.00;101490.22;5232748;28;20202;-69
2023/07/06 04:43:44;;;;;;;9.45;5.22;;;;;;;13.23;100.00;101496.78;5236559;28;20037;-67
2023/07/06 04:46:16;;;;;;;13.82;5.78;;;;;;;13.25;100.00;101493.03;5226041;28;20025;-68
2023/07/06 04:48:48;;;;;;;9.38;5.13;;;;;;;13.25;100.00;101495.72;5230848;28;20032;-67
2023/07/06 04:51:20;;;;;;;13.85;6.05;;;;;;;13.29;100.00;101497.19;5226253;28;20431;-67
2023/07/06 04:53:51;;;;;;;14.40;6.00;;;;;;;13.32;100.00;101493.41;5219584;28;20033;-68
2023/07/06 04:56:22;;;;;;;14.50;6.20;;;;;;;13.39;100.00;101505.38;5218065;28;20439;-67
2023/07/06 04:58:56;;;;;;;15.23;6.13;;;;;;;13.55;100.00;101498.81;5227470;28;20020;-68
2023/07/06 05:01:27;;;;;;;13.43;6.07;;;;;;;13.49;100.00;101498.31;5226542;28;20076;-68
2023/07/06 05:03:59;;;;;;;12.88;6.40;;;;;;;13.56;100.00;101501.38;5228303;28;20116;-68
2023/07/06 05:06:31;;;;;;;17.27;5.88;;;;;;;13.58;100.00;101506.63;5241174;28;20049;-66
2023/07/06 05:09:03;;;;;;;14.82;6.63;;;;;;;13.56;100.00;101505.88;5225649;28;20130;-67
2023/07/06 05:11:35;;;;;;;10.88;6.18;;;;;;;13.76;100.00;101505.16;5253362;28;20112;-68
2023/07/06 05:14:10;;;;;;;15.02;7.65;;;;;;;13.64;100.00;101504.31;5219993;28;20050;-68
2023/07/06 05:16:42;;;;;;;16.50;7.10;;;;;;;13.79;100.00;101504.94;5242257;28;20041;-67
2023/07/06 05:19:15;;;;;;;14.38;7.07;;;;;;;13.85;100.00;101506.28;5233492;28;20052;-68
2023/07/06 05:21:46;;;;;;;19.37;7.80;;;;;;;13.89;100.00;101513.94;5230529;28;20132;-68
2023/07/06 05:24:18;;;;;;;19.00;7.57;;;;;;;13.97;100.00;101512.47;5229973;28;20291;-68
2023/07/06 05:26:49;;;;;;;15.00;7.65;;;;;;;13.99;100.00;101511.38;5228226;28;20151;-68
2023/07/06 05:29:21;;;;;;;13.40;7.32;;;;;;;14.05;100.00;101515.38;5225355;28;20033;-68
2023/07/06 05:31:53;;;;;;;18.65;8.25;;;;;;;14.13;100.00;101515.63;5223936;28;20216;-68
2023/07/06 05:34:24;;;;;;;17.23;8.27;;;;;;;14.03;100.00;101515.50;5222688;28;20088;-68
2023/07/06 05:36:56;;;;;;;17.23;8.38;;;;;;;14.18;100.00;101520.63;5233961;28;20025;-68
2023/07/06 05:39:27;;;;;;;18.23;8.48;;;;;;;14.27;100.00;101517.19;5221148;28;20364;-68
2023/07/06 05:41:59;;;;;;;17.73;9.70;;;;;;;14.38;100.00;101514.50;5241489;28;20030;-68
2023/07/06 05:44:30;;;;;;;20.25;8.65;;;;;;;14.36;100.00;101518.25;5229171;28;20557;-68
2023/07/06 05:47:01;;;;;;;17.40;8.88;;;;;;;14.41;100.00;101519.59;5227389;28;20029;-68
2023/07/06 05:49:33;;;;;;;20.85;9.30;;;;;;;14.51;100.00;101522.38;5222566;28;20041;-68
2023/07/06 05:52:06;;;;;;;19.60;8.90;;;;;;;14.51;100.00;101525.06;5229958;28;20033;-68
2023/07/06 05:54:38;;;;;;;22.67;10.00;;;;;;;14.55;100.00;101517.59;5223055;28;20030;-68
2023/07/06 05:57:09;;;;;;;19.23;8.75;;;;;;;14.59;100.00;101522.63;5224121;28;20029;-68
2023/07/06 05:59:41;;;;;;;22.05;10.02;;;;;;;14.66;100.00;101523.81;5226135;28;20088;-68
2023/07/06 06:02:16;;;;;;;16.05;9.32;;;;;;;14.65;100.00;101519.44;5230805;28;20017;-69
2023/07/06 06:04:51;;;;;;;18.67;9.25;;;;;;;14.69;100.00;101526.28;5225417;28;20036;-68
2023/07/06 06:07:22;;;;;;;18.90;9.50;;;;;;;14.70;100.00;101525.28;5223867;28;20419;-68
2023/07/06 06:09:54;;;;;;;16.17;8.80;;;;;;;14.66;100.00;101526.50;5226098;28;20104;-68
2023/07/06 06:12:27;;;;;;;18.20;9.30;;;;;;;14.77;100.00;101527.47;5228494;28;20079;-68
2023/07/06 06:14:59;;;;;;;20.60;9.98;;;;;;;14.72;100.00;101527.84;5225872;28;20055;-69
2023/07/06 06:17:30;;;;;;;18.67;9.68;;;;;;;14.76;100.00;101523.91;5224537;28;20931;-68
2023/07/06 06:20:02;;;;;;;19.80;9.88;;;;;;;14.89;100.00;101529.13;5220816;28;20120;-68
2023/07/06 06:22:34;;;;;;;19.27;10.00;;;;;;;15.06;100.00;101533.06;5222978;28;20518;-68
2023/07/06 06:25:06;;;;;;;20.67;9.45;;;;;;;15.06;100.00;101535.75;5224829;28;20029;-68
2023/07/06 06:27:37;;;;;;;21.75;10.02;;;;;;;15.24;100.00;101544.94;5227852;28;20742;-68
2023/07/06 06:30:09;;;;;;;18.80;10.38;;;;;;;15.20;100.00;101542.66;5219849;28;20029;-68
2023/07/06 06:32:41;;;;;;;24.20;10.75;;;;;;;15.40;100.00;101557.09;5223065;28;20040;-69
2023/07/06 06:35:25;;;;;;;18.02;10.45;;;;;;;15.62;100.00;101550.69;5229063;28;20025;-68
2023/07/06 06:37:57;;;;;;;22.15;11.50;;;;;;;15.60;100.00;101555.38;5225107;28;20017;-68
2023/07/06 06:40:30;;;;;;;21.30;10.38;;;;;;;15.64;100.00;101557.66;5230159;28;20053;-69
2023/07/06 06:43:03;;;;;;;17.50;10.50;;;;;;;15.65;100.00;101559.38;5218371;28;20140;-69
2023/07/06 06:45:35;;;;;;;21.52;11.30;;;;;;;15.77;100.00;101556.63;5225483;28;20033;-71
2023/07/06 06:48:06;;;;;;;22.02;11.63;;;;;;;15.83;100.00;101561.47;5219392;28;20076;-69
2023/07/06 06:50:38;;;;;;;21.15;11.23;;;;;;;15.91;100.00;101564.31;5223577;28;20025;-68
2023/07/06 06:53:11;;;;;;;23.92;10.98;;;;;;;16.11;100.00;101567.97;5221405;28;20033;-69
2023/07/06 06:55:43;;;;;;;25.48;11.95;;;;;;;16.09;100.00;101561.88;5225925;28;20706;-68
2023/07/06 06:58:15;;;;;;;26.13;11.07;;;;;;;16.18;100.00;101566.41;5219213;28;20035;-69
2023/07/06 07:00:47;;;;;;;24.00;12.63;;;;;;;16.19;100.00;101570.81;5224230;28;20029;-69
2023/07/06 07:03:18;;;;;;;21.98;11.05;;;;;;;16.23;100.00;101566.88;5220548;28;20033;-68
2023/07/06 07:06:03;;;;;;;24.45;12.20;;;;;;;16.39;100.00;101573.56;5227309;28;20817;-69
2023/07/06 07:08:34;;;;;;;20.17;12.43;;;;;;;16.44;100.00;101577.56;5223029;28;20508;-69
2023/07/06 07:11:06;;;;;;;24.73;12.07;;;;;;;16.52;100.00;101579.56;5219064;28;20424;-69
2023/07/06 07:13:40;;;;;;;25.45;12.13;;;;;;;16.70;100.00;101581.59;5223161;28;20095;-69
2023/07/06 07:16:12;;;;;;;27.15;12.73;;;;;;;16.59;100.00;101578.03;5227095;28;20037;-69
2023/07/06 07:18:43;;;;;;;21.25;12.02;;;;;;;16.65;100.00;101574.78;5227427;28;20078;-69
2023/07/06 07:21:15;;;;;;;23.30;11.90;;;;;;;16.81;100.00;101587.69;5224989;28;20038;-69
2023/07/06 07:23:48;;;;;;;23.00;12.52;;;;;;;16.80;100.00;101586.00;5229548;28;20025;-68
2023/07/06 07:26:21;;;;;;;23.25;12.07;;;;;;;16.83;100.00;101592.97;5230167;28;20549;-69
2023/07/06 07:28:53;;;;;;;22.40;12.47;;;;;;;16.85;100.00;101588.31;5216443;28;20104;-69
2023/07/06 07:31:26;;;;;;;19.92;11.85;;;;;;;16.98;100.00;101602.38;5222210;28;20288;-69
2023/07/06 07:33:58;;;;;;;22.73;13.10;;;;;;;17.16;100.00;101594.44;5224672;28;20137;-69
2023/07/06 07:36:29;;;;;;;25.95;13.60;;;;;;;17.23;100.00;101597.41;5228984;28;20033;-69
2023/07/06 07:39:01;;;;;;;22.98;12.90;;;;;;;17.37;100.00;101596.97;5225308;28;20025;-69
2023/07/06 07:41:32;;;;;;;22.55;14.98;;;;;;;17.23;100.00;101600.09;5229023;28;20037;-69
2023/07/06 07:44:04;;;;;;;20.58;12.43;;;;;;;17.19;100.00;101591.44;5227095;28;20029;-69
2023/07/06 07:46:35;;;;;;;21.35;13.68;;;;;;;17.21;100.00;101588.59;5230641;28;20034;-69
2023/07/06 07:49:07;;;;;;;22.48;13.35;;;;;;;17.18;100.00;101592.44;5227911;28;20029;-69
2023/07/06 07:51:39;;;;;;;19.90;13.45;;;;;;;17.35;100.00;101590.00;5227841;28;20025;-69
2023/07/06 07:54:10;;;;;;;27.25;13.52;;;;;;;17.31;100.00;101586.75;5228828;28;20029;-69
2023/07/06 07:56:42;;;;;;;20.33;13.18;;;;;;;17.44;100.00;101589.16;5225307;28;20037;-69
2023/07/06 07:59:15;;;;;;;22.15;13.77;;;;;;;17.47;100.00;101590.69;5229082;28;20116;-69
2023/07/06 08:01:47;;;;;;;22.55;13.90;;;;;;;17.71;100.00;101587.53;5227598;28;20103;-69
2023/07/06 08:04:20;;;;;;;24.42;13.73;;;;;;;17.69;100.00;101594.94;5227126;28;20029;-69
2023/07/06 08:06:51;;;;;;;24.40;13.68;;;;;;;17.72;100.00;101589.22;5228266;28;20095;-69
2023/07/06 08:09:23;;;;;;;24.90;13.20;;;;;;;17.74;100.00;101598.91;5231322;28;20029;-69
2023/07/06 08:11:55;;;;;;;22.70;13.95;;;;;;;17.78;100.00;101600.31;5221600;28;20084;-69
2023/07/06 08:14:35;;;;;;;23.35;12.85;;;;;;;17.85;100.00;101594.34;5227913;28;20037;-68
2023/07/06 08:17:06;;;;;;;22.35;12.07;;;;;;;17.79;100.00;101596.59;5229098;28;20075;-68
2023/07/06 08:19:38;;;;;;;22.85;11.70;;;;;;;17.99;100.00;101602.00;5227955;28;20028;-68
2023/07/06 08:22:10;;;;;;;16.55;11.10;;;;;;;17.96;100.00;101597.72;5245477;28;20037;-69
2023/07/06 08:24:42;;;;;;;20.88;11.00;;;;;;;18.17;100.00;101608.31;5231372;28;20040;-69
2023/07/06 08:27:13;;;;;;;21.63;12.35;;;;;;;18.44;100.00;101606.63;5227923;28;20025;-69
2023/07/06 08:29:45;;;;;;;18.75;11.57;;;;;;;18.58;100.00;101599.84;5227671;28;20052;-69
2023/07/06 08:32:19;;;;;;;18.42;11.80;;;;;;;18.74;100.00;101608.16;5226194;28;20025;-68
2023/07/06 08:34:51;;;;;;;18.05;10.70;;;;;;;18.88;100.00;101598.69;5224914;28;20083;-68
2023/07/06 08:37:22;;;;;;;16.92;10.60;;;;;;;18.91;100.00;101603.81;5228291;28;20144;-69
2023/07/06 08:39:54;;;;;;;20.58;10.82;;;;;;;19.03;100.00;101609.81;5231141;28;20543;-69
2023/07/06 08:42:25;;;;;;;16.92;9.88;;;;;;;19.06;100.00;101611.38;5229197;28;20373;-69
2023/07/06 08:44:57;;;;;;;15.20;9.45;;;;;;;19.04;100.00;101611.50;5225171;28;20060;-69
2023/07/06 08:47:28;;;;;;;16.85;9.43;;;;;;;18.94;100.00;101610.75;5225429;28;20515;-69
2023/07/06 08:50:02;;;;;;;13.73;8.48;;;;;;;19.04;100.00;101616.91;5231317;28;20032;-69
2023/07/06 08:52:34;;;;;;;16.02;8.73;;;;;;;19.07;100.00;101618.50;5228715;28;20025;-69
2023/07/06 08:55:13;;;;;;;13.23;8.82;;;;;;;19.06;100.00;101616.78;5228337;28;20511;-69
2023/07/06 08:57:46;;;;;;;16.67;8.20;;;;;;;19.11;100.00;101620.72;5231564;28;20664;-69
2023/07/06 09:00:27;;;;;;;12.50;7.43;;;;;;;19.29;100.00;101619.84;5230671;28;20037;-69
2023/07/06 09:03:07;;;;;;;13.98;7.15;;;;;;;19.18;100.00;101624.50;5226078;28;20040;-69
2023/07/06 09:05:46;;;;;;;11.43;6.72;;;;;;;19.15;100.00;101622.09;5230944;28;20487;-69
2023/07/06 09:08:18;;;;;;;11.27;6.18;;;;;;;19.22;100.00;101616.09;5221259;28;20040;-69
2023/07/06 09:10:50;;;;;;;14.23;6.70;;;;;;;19.32;100.00;101624.97;5228927;28;20029;-69
2023/07/06 09:13:27;;;;;;;13.82;6.72;;;;;;;19.40;100.00;101620.47;5228816;28;20510;-69
2023/07/06 09:16:03;;;;;;;14.05;5.80;;;;;;;19.46;100.00;101615.44;5226943;28;20037;-69
2023/07/06 09:18:36;;;;;;;14.65;6.43;;;;;;;19.67;100.00;101634.03;5226695;28;20038;-70
2023/07/06 09:21:08;;;;;;;10.95;4.75;;;;;;;20.01;100.00;101619.75;5228163;28;20052;-70
2023/07/06 09:23:45;;;;;;;9.73;4.45;;;;;;;20.00;100.00;101631.59;5230553;28;20373;-70
2023/07/06 09:26:40;;;;;;;12.45;4.22;;;;;;;20.02;100.00;101625.03;5227277;28;20455;-70
2023/07/06 09:29:19;;;;;;;15.90;4.55;;;;;;;20.11;100.00;101618.59;5227760;28;20459;-70
2023/07/06 09:32:16;;;;;;;9.73;4.40;;;;;;;20.29;100.00;101623.97;5230087;28;20675;-70
2023/07/06 09:34:55;;;;;;;12.35;4.32;;;;;;;20.33;100.00;101619.91;5227651;28;20779;-71
2023/07/06 09:37:26;;;;;;;11.15;4.40;;;;;;;20.43;100.00;101618.94;5224706;28;20392;-71
2023/07/06 09:40:09;;;;;;;12.35;3.67;;;;;;;20.69;100.00;101621.59;5226095;28;20022;-71
2023/07/06 09:42:41;;;;;;;12.80;4.03;;;;;;;20.60;100.00;101622.59;5227230;28;20068;-71
2023/07/06 09:45:25;;;;;;;7.32;3.00;;;;;;;20.61;100.00;101627.00;5227146;28;20025;-70
2023/07/06 09:48:01;;;;;;;7.50;3.20;;;;;;;20.36;100.00;101621.44;5229260;28;20172;-70
2023/07/06 09:50:38;;;;;;;9.60;3.25;;;;;;;20.45;100.00;101617.75;5229943;28;20090;-70
2023/07/06 09:53:19;;;;;;;9.93;3.17;;;;;;;20.60;100.00;101625.31;5226989;28;20033;-71
2023/07/06 09:55:50;;;;;;;8.23;2.65;;;;;;;20.70;100.00;101624.16;5227887;28;20439;-71
2023/07/06 09:58:27;;;;;;;7.30;2.70;;;;;;;20.74;100.00;101624.66;5232060;28;20071;-71
2023/07/06 10:01:32;;;;;;;7.53;3.30;;;;;;;20.78;100.00;101628.75;5228980;28;20059;-71
2023/07/06 10:04:22;;;;;;;7.63;2.63;;;;;;;20.82;100.00;101615.69;5220603;28;20045;-71
2023/07/06 10:07:08;;;;;;;7.80;2.67;;;;;;;20.74;100.00;101622.78;5227870;28;20100;-71
2023/07/06 10:10:06;;;;;;;5.55;2.30;;;;;;;20.77;100.00;101624.34;5226463;28;20025;-70
2023/07/06 10:13:11;;;;;;;8.45;2.55;;;;;;;20.85;100.00;101609.97;5229555;28;20025;-71
2023/07/06 10:15:56;;;;;;;7.18;2.30;;;;;;;20.82;100.00;101611.13;5229560;28;20021;-72
2023/07/06 10:18:31;;;;;;;7.47;2.35;;;;;;;21.24;100.00;101607.44;5230060;28;20936;-71
2023/07/06 10:21:13;;;;;;;8.27;2.28;;;;;;;21.06;100.00;101615.75;5229833;28;20029;-71
2023/07/06 10:24:12;;;;;;;5.88;2.53;;;;;;;21.05;100.00;101616.75;5224220;28;20063;-71
2023/07/06 10:26:48;;;;;;;5.82;2.10;;;;;;;20.82;100.00;101611.13;5220094;28;20060;-71
2023/07/06 10:29:29;;;;;;;7.60;2.20;;;;;;;20.68;100.00;101609.06;5215534;28;20148;-71
2023/07/06 10:32:07;;;;;;;7.03;2.92;;;;;;;20.66;100.00;101605.66;5227459;28;20040;-71
2023/07/06 10:34:45;;;;;;;8.38;2.55;;;;;;;20.65;100.00;101609.38;5227818;28;21129;-71
2023/07/06 10:37:18;;;;;;;6.70;2.40;;;;;;;20.76;100.00;101601.78;5222076;28;20450;-71
2023/07/06 10:39:58;;;;;;;6.55;1.80;;;;;;;20.90;100.00;101605.72;5226704;28;20479;-71
2023/07/06 10:42:31;;;;;;;6.03;2.13;;;;;;;21.08;100.00;101608.28;5229688;28;20041;-71
2023/07/06 10:45:05;;;;;;;6.30;2.10;;;;;;;21.02;100.00;101600.84;5228225;28;20116;-71
2023/07/06 10:47:39;;;;;;;5.85;2.13;;;;;;;21.02;100.00;101605.41;5224449;28;20555;-71
2023/07/06 10:50:22;;;;;;;;;;;;;;;21.20;100.00;101611.53;5229357;28;20044;-71
2023/07/06 10:53:03;;;;;;;5.50;1.50;;;;;;;21.17;100.00;101611.88;5230650;28;19928;-72
2023/07/06 10:55:36;;;;;;;5.65;1.60;;;;;;;21.17;100.00;101611.88;5230549;28;20129;-71
2023/07/06 10:58:23;;;;;;;4.32;1.63;;;;;;;21.35;100.00;101603.56;5229300;28;20450;-71
2023/07/06 11:00:57;;;;;;;5.03;1.70;;;;;;;21.25;100.00;101611.88;5233397;28;20034;-71
2023/07/06 11:03:34;;;;;;;5.68;1.90;;;;;;;21.11;100.00;101612.53;5229200;28;20036;-71
2023/07/06 11:06:11;;;;;;;5.10;1.45;;;;;;;21.04;100.00;101614.22;5232085;28;20379;-71
2023/07/06 11:09:10;;;;;;;5.82;1.75;;;;;;;21.12;100.00;101622.38;5232181;28;20041;-71
2023/07/06 11:11:49;;;;;;;5.97;1.73;;;;;;;20.93;100.00;101629.78;5234354;28;20067;-72
2023/07/06 11:14:35;;;;;;;3.75;1.75;;;;;;;20.91;100.00;101622.84;5232120;28;20029;-71
2023/07/06 11:17:25;;;;;;;7.20;1.85;;;;;;;20.90;100.00;101624.72;5229277;28;20061;-69
2023/07/06 11:20:03;;;;;;;4.50;1.80;;;;;;;21.00;100.00;101624.56;5232840;28;20480;-68
2023/07/06 11:22:37;;;;;;;6.95;1.70;;;;;;;20.92;100.00;101622.69;5230309;28;20043;-68
2023/07/06 11:25:12;;;;;;;4.95;1.80;;;;;;;20.92;100.00;101619.97;5231979;28;20026;-68
2023/07/06 11:27:45;;;;;;;4.93;1.75;;;;;;;20.95;100.00;101624.22;5229799;28;20120;-69
2023/07/06 11:30:17;;;;;;;6.78;1.90;;;;;;;20.93;100.00;101632.50;5231128;28;20052;-69
2023/07/06 11:32:55;;;;;;;8.25;2.03;;;;;;;20.90;100.00;101626.56;5247311;28;20558;-70
2023/07/06 11:35:35;;;;;;;6.68;2.65;;;;;;;20.72;100.00;101632.97;5231325;28;20523;-69
2023/07/06 11:38:19;;;;;;;5.15;1.92;;;;;;;20.70;100.00;101634.16;5231496;28;20120;-68
2023/07/06 11:41:18;;;;;;;6.38;2.05;;;;;;;20.59;100.00;101642.56;5231067;28;20025;-69
2023/07/06 11:44:24;;;;;;;6.38;2.40;;;;;;;20.61;100.00;101637.84;5226295;28;20037;-70
2023/07/06 11:47:11;;;;;;;4.50;1.80;;;;;;;20.63;100.00;101633.09;5212378;28;20037;-70